createdAt,value
2019-02-16T00:38:20.085Z,0
2019-02-16T04:21:37.493Z,0
2019-02-16T11:44:02.971Z,0
2019-02-16T11:45:12.275Z,75.93
2019-02-16T11:46:21.310Z,72.85
2019-02-16T11:47:30.742Z,73.01
2019-02-16T11:48:39.930Z,73.65
2019-02-16T11:49:50.980Z,75.05
2019-02-16T11:51:01.123Z,74.67
2019-02-16T11:52:10.660Z,74.15
2019-02-16T11:53:19.936Z,75.21
2019-02-16T11:54:29.207Z,75.31
2019-02-16T11:55:47.870Z,75.4
2019-02-16T11:56:57.400Z,75.69
2019-02-16T11:58:06.683Z,75.69
2019-02-16T11:59:15.951Z,75.31
2019-02-16T12:00:25.246Z,75.4
2019-02-16T12:01:34.523Z,75.49
2019-02-16T12:02:45.424Z,75.49
2019-02-16T12:03:55.001Z,75.49
2019-02-16T12:05:04.282Z,75.4
2019-02-16T12:06:13.555Z,75.31
2019-02-16T12:07:23.099Z,75.4
2019-02-16T12:08:31.951Z,75.37
2019-02-16T12:09:41.470Z,74.88
2019-02-16T12:10:50.751Z,75.37
2019-02-16T12:11:59.788Z,75.65
2019-02-16T12:13:09.317Z,75.07
2019-02-16T12:14:18.596Z,75.27
2019-02-16T12:15:27.880Z,74.79
2019-02-16T12:16:37.169Z,74.98
2019-02-16T12:17:46.449Z,74.98
2019-02-16T12:18:55.965Z,74.98
2019-02-16T12:20:05.004Z,74.6
2019-02-16T12:21:14.525Z,74.79
2019-02-16T12:22:24.065Z,75.07
2019-02-16T12:23:33.591Z,75.17
2019-02-16T12:24:42.857Z,75.37
2019-02-16T12:26:11.173Z,75.07
2019-02-16T12:27:20.701Z,74.79
2019-02-16T12:28:29.986Z,74.88
2019-02-16T12:29:39.269Z,74.69
2019-02-16T12:30:48.801Z,74.79
2019-02-16T12:31:58.108Z,75.17
2019-02-16T12:33:08.117Z,75.07
2019-02-16T12:34:17.631Z,74.98
2019-02-16T12:35:27.400Z,75.07
2019-02-16T12:36:37.160Z,75.27
2019-02-16T12:37:47.177Z,75.37
2019-02-16T12:39:04.536Z,75.27
2019-02-16T12:40:14.395Z,74.88
2019-02-16T12:41:24.410Z,75.27
2019-02-16T12:42:34.406Z,75.27
2019-02-16T12:43:43.905Z,75.37
2019-02-16T12:44:53.098Z,75.17
2019-02-16T12:46:03.211Z,75.07
2019-02-16T12:47:13.233Z,75.07
2019-02-16T12:48:23.236Z,75.27
2019-02-16T12:49:32.991Z,75.07
2019-02-16T12:50:42.498Z,74.69
2019-02-16T12:51:52.256Z,74.63
2019-02-16T12:53:02.337Z,74.6
2019-02-16T12:54:11.861Z,74.54
2019-02-16T12:55:21.363Z,74.54
2019-02-16T12:56:31.129Z,74.73
2019-02-16T12:57:40.690Z,74.63
2019-02-16T12:58:50.450Z,74.15
2019-02-16T12:59:59.958Z,74.34
2019-02-16T13:01:09.397Z,74.63
2019-02-16T13:02:19.414Z,74.73
2019-02-16T13:03:30.058Z,74.73
2019-02-16T13:04:40.068Z,74.63
2019-02-16T13:05:49.303Z,74.73
2019-02-16T13:06:59.096Z,74.82
2019-02-16T13:08:08.570Z,74.73
2019-02-16T13:09:18.367Z,74.54
2019-02-16T13:10:28.412Z,74.3
2019-02-16T13:11:38.126Z,74.69
2019-02-16T13:12:47.925Z,74.69
2019-02-16T13:13:57.710Z,74.79
2019-02-16T13:15:07.728Z,74.79
2019-02-16T13:16:17.231Z,74.92
2019-02-16T13:17:27.246Z,74.25
2019-02-16T13:18:36.431Z,74.25
2019-02-16T13:19:47.538Z,74.73
2019-02-16T13:20:57.552Z,74.73
2019-02-16T13:22:07.299Z,74.63
2019-02-16T13:23:17.059Z,74.63
2019-02-16T13:24:26.829Z,74.63
2019-02-16T13:25:36.563Z,74.54
2019-02-16T13:26:46.338Z,74.44
2019-02-16T13:27:56.362Z,74.25
2019-02-16T13:29:05.802Z,74.44
2019-02-16T13:30:15.321Z,74.44
2019-02-16T13:31:24.758Z,74.44
2019-02-16T13:32:34.512Z,74.44
2019-02-16T13:33:44.273Z,74.54
2019-02-16T13:34:54.274Z,74.54
2019-02-16T13:36:04.031Z,74.63
2019-02-16T13:37:13.787Z,74.63
2019-02-16T13:38:23.290Z,74.54
2019-02-16T13:39:32.790Z,74.63
2019-02-16T13:40:42.303Z,74.44
2019-02-16T13:41:52.319Z,73.96
2019-02-16T13:43:02.393Z,74.44
2019-02-16T13:44:12.603Z,74.63
2019-02-16T13:45:22.612Z,74.63
2019-02-16T13:46:32.664Z,74.63
2019-02-16T13:47:42.436Z,74.73
2019-02-16T13:48:52.111Z,74.82
2019-02-16T13:50:01.551Z,74.73
2019-02-16T13:51:11.055Z,74.63
2019-02-16T13:52:20.761Z,74.63
2019-02-16T13:53:30.768Z,74.73
2019-02-16T13:54:40.807Z,74.73
2019-02-16T13:55:49.737Z,74.73
2019-02-16T13:57:00.322Z,74.63
2019-02-16T13:58:10.354Z,74.63
2019-02-16T13:59:19.790Z,74.63
2019-02-16T14:00:29.242Z,74.73
2019-02-16T14:01:39.001Z,74.82
2019-02-16T14:02:48.767Z,74.82
2019-02-16T14:03:58.537Z,74.92
2019-02-16T14:05:08.053Z,74.82
2019-02-16T14:06:17.949Z,75.02
2019-02-16T14:07:27.748Z,74.92
2019-02-16T14:08:37.504Z,75.02
2019-02-16T14:09:47.279Z,74.92
2019-02-16T14:10:57.037Z,74.92
2019-02-16T14:12:06.800Z,74.92
2019-02-16T14:13:16.802Z,74.73
2019-02-16T14:14:26.480Z,74.82
2019-02-16T14:15:36.240Z,74.82
2019-02-16T14:16:46.024Z,74.92
2019-02-16T14:17:56.029Z,75.02
2019-02-16T14:19:05.566Z,74.92
2019-02-16T14:20:15.316Z,75.02
2019-02-16T14:21:25.067Z,75.02
2019-02-16T14:22:34.820Z,75.02
2019-02-16T14:23:44.279Z,75.02
2019-02-16T14:24:53.960Z,75.02
2019-02-16T14:26:03.219Z,74.82
2019-02-16T14:27:12.779Z,74.92
2019-02-16T14:28:22.300Z,74.92
2019-02-16T14:29:31.981Z,74.92
2019-02-16T14:30:41.993Z,74.96
2019-02-16T14:31:51.793Z,74.86
2019-02-16T14:33:01.799Z,74.92
2019-02-16T14:34:11.498Z,74.86
2019-02-16T14:35:21.250Z,74.76
2019-02-16T14:36:31.273Z,74.96
2019-02-16T14:37:41.288Z,74.86
2019-02-16T14:38:50.725Z,74.86
2019-02-16T14:39:59.663Z,74.86
2019-02-16T14:41:09.427Z,74.76
2019-02-16T14:42:19.430Z,74.86
2019-02-16T14:43:29.477Z,74.86
2019-02-16T14:44:41.120Z,74.96
2019-02-16T14:45:52.390Z,74.96
2019-02-16T14:47:02.393Z,74.86
2019-02-16T14:48:12.414Z,74.96
2019-02-16T14:49:22.438Z,74.67
2019-02-16T14:50:31.891Z,74.86
2019-02-16T14:51:41.914Z,74.86
2019-02-16T14:52:51.931Z,74.86
2019-02-16T14:54:01.935Z,74.86
2019-02-16T14:55:11.689Z,74.86
2019-02-16T14:56:21.212Z,74.67
2019-02-16T14:57:30.998Z,74.67
2019-02-16T14:58:41.027Z,74.76
2019-02-16T14:59:50.540Z,74.76
2019-02-16T15:01:00.556Z,74.86
2019-02-16T15:02:10.323Z,74.67
2019-02-16T15:03:20.335Z,74.57
2019-02-16T15:04:29.762Z,74.57
2019-02-16T15:05:39.771Z,74.57
2019-02-16T15:06:49.205Z,74.67
2019-02-16T15:07:58.894Z,74.76
2019-02-16T15:09:08.672Z,74.76
2019-02-16T15:10:18.697Z,74.86
2019-02-16T15:11:28.206Z,74.76
2019-02-16T15:12:37.402Z,74.67
2019-02-16T15:13:47.584Z,74.67
2019-02-16T15:14:57.346Z,74.38
2019-02-16T15:16:07.100Z,74.48
2019-02-16T15:17:17.109Z,75.15
2019-02-16T15:18:27.111Z,74.76
2019-02-16T15:19:36.049Z,75.05
2019-02-16T15:20:45.804Z,75.34
2019-02-16T15:21:55.847Z,75.05
2019-02-16T15:23:05.867Z,74.67
2019-02-16T15:24:15.559Z,75.15
2019-02-16T15:25:25.254Z,75.15
2019-02-16T15:26:35.016Z,75.63
2019-02-16T15:27:44.526Z,75.73
2019-02-16T15:28:53.959Z,75.73
2019-02-16T15:30:03.467Z,75.92
2019-02-16T15:31:13.480Z,75.92
2019-02-16T15:32:22.704Z,75.63
2019-02-16T15:33:32.711Z,75.82
2019-02-16T15:34:41.978Z,75.92
2019-02-16T15:35:51.730Z,75.92
2019-02-16T15:37:00.914Z,75.73
2019-02-16T15:38:10.929Z,75.54
2019-02-16T15:39:20.696Z,75.44
2019-02-16T15:40:30.452Z,75.24
2019-02-16T15:41:40.210Z,75.44
2019-02-16T15:42:49.719Z,75.54
2019-02-16T15:43:59.476Z,75.63
2019-02-16T15:45:09.161Z,75.82
2019-02-16T15:46:19.161Z,75.73
2019-02-16T15:47:28.416Z,75.63
2019-02-16T15:48:37.670Z,75.63
2019-02-16T15:49:47.258Z,75.63
2019-02-16T15:50:57.018Z,75.63
2019-02-16T15:52:06.531Z,75.63
2019-02-16T15:53:16.536Z,75.63
2019-02-16T15:54:26.047Z,75.63
2019-02-16T15:55:35.803Z,75.63
2019-02-16T15:56:45.481Z,75.63
2019-02-16T15:57:56.053Z,75.63
2019-02-16T15:59:05.892Z,75.63
2019-02-16T16:00:17.496Z,75.63
2019-02-16T16:01:27.639Z,75.63
2019-02-16T16:02:37.852Z,75.73
2019-02-16T16:03:47.631Z,75.63
2019-02-16T16:04:57.412Z,75.63
2019-02-16T16:06:07.431Z,75.63
2019-02-16T16:07:16.951Z,75.73
2019-02-16T16:08:26.646Z,75.82
2019-02-16T16:09:36.900Z,75.73
2019-02-16T16:10:46.352Z,75.73
2019-02-16T16:11:56.372Z,75.73
2019-02-16T16:13:06.129Z,75.79
2019-02-16T16:14:15.905Z,75.79
2019-02-16T16:15:25.432Z,75.79
2019-02-16T16:16:44.639Z,75.79
2019-02-16T16:17:54.390Z,75.73
2019-02-16T16:19:04.143Z,75.73
2019-02-16T16:20:13.403Z,75.79
2019-02-16T16:21:23.161Z,75.79
2019-02-16T16:22:32.366Z,75.79
2019-02-16T16:23:42.412Z,75.79
2019-02-16T16:24:52.177Z,75.79
2019-02-16T16:26:02.186Z,75.79
2019-02-16T16:27:11.171Z,75.79
2019-02-16T16:28:20.702Z,75.79
2019-02-16T16:29:30.720Z,75.88
2019-02-16T16:30:40.481Z,75.88
2019-02-16T16:31:49.914Z,75.88
2019-02-16T16:32:59.938Z,75.88
2019-02-16T16:34:09.741Z,76.07
2019-02-16T16:35:19.502Z,76.17
2019-02-16T16:36:30.783Z,76.46
2019-02-16T16:37:40.221Z,76.56
2019-02-16T16:38:49.988Z,76.65
2019-02-16T16:40:00.003Z,76.75
2019-02-16T16:41:10.031Z,76.84
2019-02-16T16:42:18.983Z,77.04
2019-02-16T16:43:28.496Z,77.04
2019-02-16T16:44:37.928Z,77.04
2019-02-16T16:45:47.704Z,77.04
2019-02-16T16:46:57.720Z,77.13
2019-02-16T16:48:07.740Z,77.13
2019-02-16T16:49:17.424Z,77.23
2019-02-16T16:50:27.478Z,77.13
2019-02-16T16:51:37.240Z,77.08
2019-02-16T16:52:47.020Z,77.17
2019-02-16T16:53:57.029Z,77.26
2019-02-16T16:55:06.789Z,77.36
2019-02-16T16:56:16.298Z,77.26
2019-02-16T16:57:33.855Z,77.36
2019-02-16T16:58:43.865Z,77.36
2019-02-16T16:59:53.882Z,77.46
2019-02-16T17:01:03.891Z,77.46
2019-02-16T17:02:13.903Z,77.36
2019-02-16T17:03:23.670Z,77.36
2019-02-16T17:04:33.360Z,77.36
2019-02-16T17:05:43.111Z,77.36
2019-02-16T17:06:53.131Z,77.26
2019-02-16T17:08:03.150Z,77.26
2019-02-16T17:09:13.153Z,77.26
2019-02-16T17:10:22.662Z,77.17
2019-02-16T17:11:32.422Z,77.17
2019-02-16T17:12:42.430Z,77.26
2019-02-16T17:13:51.372Z,77.26
2019-02-16T17:15:01.386Z,77.36
2019-02-16T17:16:11.426Z,77.33
2019-02-16T17:17:21.429Z,77.33
2019-02-16T17:18:31.190Z,77.33
2019-02-16T17:19:40.716Z,77.23
2019-02-16T17:20:49.981Z,77.13
2019-02-16T17:21:59.430Z,77.13
2019-02-16T17:23:09.119Z,77.13
2019-02-16T17:24:18.639Z,77.13
2019-02-16T17:25:28.393Z,77.04
2019-02-16T17:26:39.878Z,77.23
2019-02-16T17:27:49.318Z,77.23
2019-02-16T17:28:59.333Z,77.23
2019-02-16T17:30:09.124Z,77.23
2019-02-16T17:31:19.132Z,77.23
2019-02-16T17:32:28.823Z,77.33
2019-02-16T17:33:38.338Z,77.33
2019-02-16T17:34:48.116Z,77.33
2019-02-16T17:35:57.809Z,77.33
2019-02-16T17:37:07.574Z,77.23
2019-02-16T17:38:17.004Z,77.23
2019-02-16T17:39:27.007Z,77.23
2019-02-16T17:40:36.456Z,77.33
2019-02-16T17:41:46.217Z,77.33
2019-02-16T17:42:56.580Z,77.33
2019-02-16T17:44:06.349Z,77.33
2019-02-16T17:45:16.109Z,77.42
2019-02-16T17:46:25.880Z,77.42
2019-02-16T17:47:35.893Z,77.42
2019-02-16T17:48:45.664Z,77.42
2019-02-16T17:49:54.859Z,77.33
2019-02-16T17:51:04.884Z,77.23
2019-02-16T17:52:14.391Z,77.33
2019-02-16T17:53:26.043Z,77.33
2019-02-16T17:54:35.243Z,77.51
2019-02-16T17:55:45.268Z,77.51
2019-02-16T17:56:55.027Z,77.51
2019-02-16T17:58:05.037Z,77.58
2019-02-16T17:59:16.333Z,77.67
2019-02-16T18:00:26.359Z,77.67
2019-02-16T18:01:35.793Z,77.67
2019-02-16T18:02:45.605Z,77.67
2019-02-16T18:03:55.356Z,77.67
2019-02-16T18:05:05.114Z,77.76
2019-02-16T18:06:14.870Z,77.76
2019-02-16T18:07:24.628Z,77.76
2019-02-16T18:08:34.434Z,77.76
2019-02-16T18:09:44.443Z,77.86
2019-02-16T18:14:23.421Z,77.96
2019-02-16T18:15:33.347Z,78.06
2019-02-16T18:16:43.063Z,78.06
2019-02-16T18:17:52.512Z,78.15
2019-02-16T18:19:02.292Z,78.15
2019-02-16T18:20:11.250Z,78.15
2019-02-16T18:21:21.301Z,78.15
2019-02-16T18:22:31.144Z,78.15
2019-02-16T18:23:41.153Z,78.15
2019-02-16T18:24:50.951Z,78.15
2019-02-16T18:26:00.743Z,78.15
2019-02-16T18:27:10.217Z,78.15
2019-02-16T18:28:21.944Z,78.15
2019-02-16T18:29:31.637Z,78.15
2019-02-16T18:30:41.183Z,78.06
2019-02-16T18:31:50.722Z,77.96
2019-02-16T18:33:00.268Z,77.96
2019-02-16T18:34:09.910Z,78.06
2019-02-16T18:35:25.986Z,78.06
2019-02-16T18:36:36.851Z,78.15
2019-02-16T18:37:46.626Z,78.15
2019-02-16T18:38:56.660Z,78.15
2019-02-16T18:40:06.485Z,78.06
2019-02-16T18:41:16.448Z,78.15
2019-02-16T18:42:26.202Z,78.25
2019-02-16T18:43:35.993Z,78.34
2019-02-16T18:44:45.501Z,78.34
2019-02-16T18:45:54.800Z,78.34
2019-02-16T18:47:04.254Z,78.44
2019-02-16T18:48:13.584Z,78.44
2019-02-16T18:49:23.063Z,78.44
2019-02-16T18:50:34.115Z,78.44
2019-02-16T18:51:43.926Z,78.44
2019-02-16T18:52:53.974Z,78.53
2019-02-16T18:54:03.483Z,78.44
2019-02-16T18:55:13.643Z,78.53
2019-02-16T18:56:22.610Z,78.53
2019-02-16T18:57:32.123Z,78.53
2019-02-16T18:58:41.879Z,78.44
2019-02-16T18:59:51.669Z,78.53
2019-02-16T19:01:01.505Z,78.53
2019-02-16T19:02:11.278Z,78.53
2019-02-16T19:03:21.300Z,78.53
2019-02-16T19:04:31.092Z,78.63
2019-02-16T19:05:40.802Z,78.53
2019-02-16T19:06:51.205Z,78.53
2019-02-16T19:08:00.965Z,78.63
2019-02-16T19:09:11.017Z,78.63
2019-02-16T19:10:21.082Z,78.53
2019-02-16T19:11:30.829Z,78.53
2019-02-16T19:12:40.730Z,78.44
2019-02-16T19:13:50.396Z,78.63
2019-02-16T19:14:59.919Z,78.63
2019-02-16T19:16:09.380Z,78.63
2019-02-16T19:17:21.309Z,78.63
2019-02-16T19:18:30.750Z,78.63
2019-02-16T19:19:40.520Z,78.73
2019-02-16T19:20:50.460Z,78.73
2019-02-16T19:22:00.216Z,78.63
2019-02-16T19:23:12.568Z,78.63
2019-02-16T19:24:22.581Z,78.63
2019-02-16T19:25:32.363Z,78.63
2019-02-16T19:26:41.805Z,78.63
2019-02-16T19:27:51.342Z,78.63
2019-02-16T19:29:01.113Z,78.59
2019-02-16T19:30:11.172Z,78.73
2019-02-16T19:31:21.176Z,78.59
2019-02-16T19:32:30.607Z,78.63
2019-02-16T19:33:40.309Z,78.69
2019-02-16T19:34:50.006Z,78.69
2019-02-16T19:35:59.697Z,78.69
2019-02-16T19:37:09.397Z,78.69
2019-02-16T19:38:19.166Z,78.78
2019-02-16T19:39:30.446Z,78.69
2019-02-16T19:40:39.892Z,78.69
2019-02-16T19:41:49.967Z,78.59
2019-02-16T19:42:59.417Z,78.69
2019-02-16T19:46:35.040Z,78.69
2019-02-16T19:47:45.079Z,78.69
2019-02-16T19:48:54.561Z,78.69
2019-02-16T19:50:04.700Z,78.69
2019-02-16T19:51:14.787Z,78.59
2019-02-16T19:52:24.308Z,78.69
2019-02-16T19:53:34.063Z,78.78
2019-02-16T19:54:44.177Z,78.69
2019-02-16T19:55:53.783Z,78.69
2019-02-16T19:57:03.541Z,78.69
2019-02-16T19:58:13.326Z,78.69
2019-02-16T19:59:23.102Z,78.69
2019-02-16T20:00:32.618Z,78.69
2019-02-16T20:01:42.373Z,78.69
2019-02-16T20:02:52.375Z,78.69
2019-02-16T20:04:01.311Z,78.59
2019-02-16T20:05:10.775Z,78.69
2019-02-16T20:06:20.536Z,78.69
2019-02-16T20:07:29.781Z,78.78
2019-02-16T20:08:39.836Z,78.69
2019-02-16T20:09:49.632Z,78.69
2019-02-16T20:10:59.122Z,78.69
2019-02-16T20:12:08.903Z,78.78
2019-02-16T20:13:18.461Z,78.69
2019-02-16T20:14:28.479Z,78.69
2019-02-16T20:15:38.233Z,78.69
2019-02-16T20:16:47.491Z,78.69
2019-02-16T20:17:57.010Z,78.69
2019-02-16T20:19:06.851Z,78.69
2019-02-16T20:20:16.630Z,78.59
2019-02-16T20:21:26.066Z,78.69
2019-02-16T20:22:36.109Z,78.69
2019-02-16T20:23:45.377Z,78.59
2019-02-16T20:24:54.608Z,78.69
2019-02-16T20:26:04.645Z,78.59
2019-02-16T20:27:13.879Z,78.59
2019-02-16T20:28:23.912Z,78.69
2019-02-16T20:29:33.600Z,78.78
2019-02-16T20:30:43.366Z,78.78
2019-02-16T20:31:52.824Z,78.69
2019-02-16T20:33:02.620Z,78.69
2019-02-16T20:34:12.060Z,78.59
2019-02-16T20:35:21.753Z,78.59
2019-02-16T20:36:31.501Z,78.69
2019-02-16T20:37:41.752Z,78.69
2019-02-16T20:38:51.528Z,78.69
2019-02-16T20:40:01.306Z,78.78
2019-02-16T20:41:11.073Z,78.69
2019-02-16T20:42:20.520Z,78.69
2019-02-16T20:43:30.024Z,78.69
2019-02-16T20:44:40.905Z,78.69
2019-02-16T20:45:50.955Z,78.59
2019-02-16T20:47:00.416Z,78.59
2019-02-16T20:48:10.128Z,78.59
2019-02-16T20:49:19.674Z,78.59
2019-02-16T20:50:29.706Z,78.69
2019-02-16T20:51:39.490Z,78.69
2019-02-16T20:52:49.276Z,78.69
2019-02-16T20:53:59.041Z,78.78
2019-02-16T20:55:09.081Z,78.78
2019-02-16T20:56:18.625Z,78.69
2019-02-16T20:57:28.439Z,78.69
2019-02-16T20:58:38.148Z,78.59
2019-02-16T20:59:48.017Z,78.59
2019-02-16T21:00:57.728Z,78.59
2019-02-16T21:02:07.497Z,78.69
2019-02-16T21:03:16.948Z,78.69
2019-02-16T21:04:26.780Z,78.69
2019-02-16T21:05:36.535Z,78.69
2019-02-16T21:06:45.818Z,78.69
2019-02-16T21:07:55.574Z,78.69
2019-02-16T21:09:04.826Z,78.69
2019-02-16T21:10:14.521Z,78.69
2019-02-16T21:14:36.643Z,78.59
2019-02-16T21:15:46.207Z,78.59
2019-02-16T21:16:56.211Z,78.69
2019-02-16T21:18:05.922Z,78.69
2019-02-16T21:19:15.955Z,78.59
2019-02-16T21:20:25.477Z,78.69
2019-02-16T21:21:35.503Z,78.69
2019-02-16T21:22:45.259Z,78.69
2019-02-16T21:23:54.859Z,78.69
2019-02-16T21:25:05.652Z,78.69
2019-02-16T21:26:15.688Z,78.75
2019-02-16T21:27:25.726Z,78.65
2019-02-16T21:28:35.515Z,78.69
2019-02-16T21:29:45.287Z,78.65
2019-02-16T21:30:54.972Z,78.65
2019-02-16T21:32:04.781Z,78.65
2019-02-16T21:33:14.607Z,78.65
2019-02-16T21:34:24.631Z,78.59
2019-02-16T21:35:34.951Z,78.59
2019-02-16T21:36:44.672Z,78.65
2019-02-16T21:37:54.450Z,78.65
2019-02-16T21:39:05.455Z,78.65
2019-02-16T21:40:15.209Z,78.65
2019-02-16T21:41:25.260Z,78.55
2019-02-16T21:42:35.034Z,78.65
2019-02-16T21:43:44.566Z,78.84
2019-02-16T21:44:54.627Z,78.88
2019-02-16T21:46:04.439Z,79.07
2019-02-16T21:47:13.868Z,78.98
2019-02-16T21:48:23.873Z,78.98
2019-02-16T21:49:33.315Z,79.27
2019-02-16T21:50:44.550Z,79.17
2019-02-16T21:51:55.251Z,79.07
2019-02-16T21:53:04.941Z,79.07
2019-02-16T21:54:24.288Z,79.07
2019-02-16T21:55:35.460Z,79.27
2019-02-16T21:56:45.085Z,79.36
2019-02-16T21:57:54.859Z,79.27
2019-02-16T21:59:21.289Z,79.27
2019-02-16T22:00:31.292Z,79.17
2019-02-16T22:01:43.244Z,79.17
2019-02-16T22:02:52.494Z,79.07
2019-02-16T22:04:03.526Z,79.07
2019-02-16T22:05:12.965Z,79.07
2019-02-16T22:06:22.821Z,78.98
2019-02-16T22:07:32.582Z,78.88
2019-02-16T22:08:42.017Z,78.88
2019-02-16T22:09:52.028Z,78.78
2019-02-16T22:11:01.534Z,78.69
2019-02-16T22:12:11.216Z,78.5
2019-02-16T22:13:20.968Z,78.5
2019-02-16T22:14:30.729Z,78.3
2019-02-16T22:15:39.668Z,78.3
2019-02-16T22:16:48.852Z,78.3
2019-02-16T22:17:58.608Z,78.17
2019-02-16T22:19:08.133Z,78.17
2019-02-16T22:20:18.157Z,78.17
2019-02-16T22:21:27.938Z,78.17
2019-02-16T22:22:37.637Z,78.17
2019-02-16T22:23:47.645Z,78.17
2019-02-16T22:24:57.395Z,78.17
2019-02-16T22:26:07.402Z,78.27
2019-02-16T22:27:17.199Z,78.27
2019-02-16T22:28:32.559Z,78.17
2019-02-16T22:29:42.167Z,78.27
2019-02-16T22:30:51.181Z,78.17
2019-02-16T22:32:01.191Z,78.27
2019-02-16T22:33:10.698Z,78.27
2019-02-16T22:34:19.873Z,78.27
2019-02-16T22:35:29.391Z,78.27
2019-02-16T22:36:39.161Z,78.36
2019-02-16T22:37:48.851Z,78.36
2019-02-16T22:38:58.853Z,78.36
2019-02-16T22:40:08.045Z,78.45
2019-02-16T22:41:18.057Z,78.36
2019-02-16T22:42:27.241Z,78.55
2019-02-16T22:43:37.006Z,78.36
2019-02-16T22:44:47.027Z,78.27
2019-02-16T22:45:56.782Z,78.27
2019-02-16T22:47:06.786Z,78.17
2019-02-16T22:48:16.806Z,78.17
2019-02-16T22:49:26.059Z,78.08
2019-02-16T22:50:36.077Z,78.08
2019-02-16T22:51:47.635Z,78.08
2019-02-16T22:52:57.392Z,77.98
2019-02-16T22:54:06.896Z,77.98
2019-02-16T22:55:16.898Z,78.08
2019-02-16T22:56:26.650Z,78.17
2019-02-16T22:57:36.170Z,78.17
2019-02-16T22:58:46.194Z,78.17
2019-02-16T22:59:55.637Z,78.17
2019-02-16T23:01:05.671Z,78.08
2019-02-16T23:02:15.102Z,78.17
2019-02-16T23:03:24.861Z,78.17
2019-02-16T23:04:34.289Z,78.27
2019-02-16T23:05:44.097Z,78.27
2019-02-16T23:06:53.854Z,78.36
2019-02-16T23:08:04.361Z,78.27
2019-02-16T23:09:14.193Z,78.36
2019-02-16T23:10:24.206Z,78.36
2019-02-16T23:11:33.963Z,78.36
2019-02-16T23:12:43.776Z,78.36
2019-02-16T23:13:53.471Z,78.45
2019-02-16T23:15:03.228Z,78.55
2019-02-16T23:16:12.663Z,78.55
2019-02-16T23:17:22.708Z,78.45
2019-02-16T23:18:32.477Z,78.45
2019-02-16T23:19:41.909Z,78.45
2019-02-16T23:20:51.664Z,78.55
2019-02-16T23:22:01.681Z,78.55
2019-02-16T23:23:11.733Z,78.55
2019-02-16T23:24:21.754Z,78.55
2019-02-16T23:25:31.515Z,78.55
2019-02-16T23:26:41.526Z,78.45
2019-02-16T23:27:51.290Z,78.45
2019-02-16T23:29:01.057Z,78.45
2019-02-16T23:30:10.751Z,78.65
2019-02-16T23:31:20.261Z,78.55
2019-02-16T23:32:30.015Z,78.55
2019-02-16T23:33:39.515Z,78.65
2019-02-16T23:34:49.036Z,78.65
2019-02-16T23:35:58.478Z,78.65
2019-02-16T23:37:08.230Z,78.65
2019-02-16T23:38:18.252Z,78.65
2019-02-16T23:39:28.282Z,78.75
2019-02-16T23:40:38.300Z,78.75
2019-02-16T23:41:47.801Z,78.8
2019-02-16T23:42:57.233Z,78.84
2019-02-16T23:44:06.989Z,78.84
2019-02-16T23:45:16.792Z,78.8
2019-02-16T23:46:26.546Z,78.8
2019-02-16T23:47:36.225Z,78.84
2019-02-16T23:48:45.990Z,78.7
2019-02-16T23:49:55.165Z,78.8
2019-02-16T23:51:04.688Z,78.7
2019-02-16T23:52:14.221Z,78.8
2019-02-16T23:53:24.242Z,78.8
2019-02-16T23:54:33.997Z,78.7
2019-02-16T23:55:44.020Z,78.8
2019-02-16T23:56:53.286Z,78.9
2019-02-16T23:58:03.044Z,78.8
2019-02-16T23:59:12.792Z,78.8
